Archival Weather

Bob Hope

Burbank, California (KBUR)

Report from: Monday, January 29, 2024 3:53 AM PST
Current time: Monday, June 24, 2024 3:01 AM PDT

Current weather – Weather history – Daily summaries
Weather forecast

Temperature11.1°C (52.0°F)
Dew point3.3°C (37.9°F)
Winds Calm
Visibility10 mi. (16.1 km)
Clouds Sky clear
Altimeter30.13 in.Hg (1020 mB)
Relative humidity59 %
Density altitude-558 ft. (-170 m)
Sea-level pressure101.9 kPa (1019 mB, 30.10 in.Hg)
Max temp last 6 hours15.0°C (59.0°F)
Min temp last 6 hours10.6°C (51.1°F)
Remarks Automated weather observing station with precipitation discriminator
Pressure falling more quickly
Flight conditions Visual Meteorological Conditions
Raw dataKBUR 291153Z 00000KT 10SM CLR 11/03 A3013 RMK AO2 SLP194 T01110033 10150 20106 58003
An error has occurred. This application may no longer respond until reloaded. Reload 🗙